sensor_id;sensor_type;location;lat;lon;timestamp;temperature;humidity
4050;DHT22;2039;50.894;6.888;2022-08-01T00:00:11;23.20;63.50
4050;DHT22;2039;50.894;6.888;2022-08-01T00:02:37;23.30;62.40
4050;DHT22;2039;50.894;6.888;2022-08-01T00:05:04;23.30;62.40
4050;DHT22;2039;50.894;6.888;2022-08-01T00:07:34;23.40;60.50
4050;DHT22;2039;50.894;6.888;2022-08-01T00:10:00;23.40;60.90
4050;DHT22;2039;50.894;6.888;2022-08-01T00:12:26;23.40;62.10
4050;DHT22;2039;50.894;6.888;2022-08-01T00:14:51;23.40;60.90
4050;DHT22;2039;50.894;6.888;2022-08-01T00:17:17;23.40;62.10
4050;DHT22;2039;50.894;6.888;2022-08-01T00:19:43;23.40;62.10
4050;DHT22;2039;50.894;6.888;2022-08-01T00:22:08;23.40;61.40
4050;DHT22;2039;50.894;6.888;2022-08-01T00:24:34;23.40;61.50
4050;DHT22;2039;50.894;6.888;2022-08-01T00:27:00;23.30;63.80
4050;DHT22;2039;50.894;6.888;2022-08-01T00:29:25;23.30;64.20
4050;DHT22;2039;50.894;6.888;2022-08-01T00:31:51;23.30;65.30
4050;DHT22;2039;50.894;6.888;2022-08-01T00:34:17;23.20;69.30
4050;DHT22;2039;50.894;6.888;2022-08-01T00:36:43;23.20;70.80
4050;DHT22;2039;50.894;6.888;2022-08-01T00:39:08;23.20;70.40
4050;DHT22;2039;50.894;6.888;2022-08-01T00:41:34;23.20;69.50
4050;DHT22;2039;50.894;6.888;2022-08-01T00:44:06;23.10;74.40
4050;DHT22;2039;50.894;6.888;2022-08-01T00:46:32;23.10;73.00
4050;DHT22;2039;50.894;6.888;2022-08-01T00:48:59;23.10;74.30
4050;DHT22;2039;50.894;6.888;2022-08-01T00:51:25;23.00;75.80
4050;DHT22;2039;50.894;6.888;2022-08-01T00:53:52;23.10;75.40
4050;DHT22;2039;50.894;6.888;2022-08-01T00:56:24;23.10;76.90
4050;DHT22;2039;50.894;6.888;2022-08-01T00:58:51;23.10;78.40
4050;DHT22;2039;50.894;6.888;2022-08-01T01:01:18;23.00;84.80
4050;DHT22;2039;50.894;6.888;2022-08-01T01:03:46;23.00;82.40
4050;DHT22;2039;50.894;6.888;2022-08-01T01:12:16;23.10;90.10
4050;DHT22;2039;50.894;6.888;2022-08-01T01:17:33;23.00;91.20
4050;DHT22;2039;50.894;6.888;2022-08-01T01:20:03;22.80;93.60
4050;DHT22;2039;50.894;6.888;2022-08-01T01:23:15;22.90;93.70
4050;DHT22;2039;50.894;6.888;2022-08-01T01:30:55;22.60;98.20
4050;DHT22;2039;50.894;6.888;2022-08-01T01:33:23;22.60;98.20
4050;DHT22;2039;50.894;6.888;2022-08-01T01:35:53;22.60;98.40
4050;DHT22;2039;50.894;6.888;2022-08-01T01:38:24;22.60;99.20
4050;DHT22;2039;50.894;6.888;2022-08-01T01:40:52;22.60;98.90
4050;DHT22;2039;50.894;6.888;2022-08-01T01:43:19;22.70;98.30
4050;DHT22;2039;50.894;6.888;2022-08-01T01:45:47;22.70;97.60
4050;DHT22;2039;50.894;6.888;2022-08-01T01:48:19;22.70;98.00
4050;DHT22;2039;50.894;6.888;2022-08-01T01:50:46;22.60;99.20
4050;DHT22;2039;50.894;6.888;2022-08-01T01:53:14;22.70;98.80
4050;DHT22;2039;50.894;6.888;2022-08-01T01:55:43;22.60;99.40
4050;DHT22;2039;50.894;6.888;2022-08-01T01:58:12;22.70;98.50
4050;DHT22;2039;50.894;6.888;2022-08-01T02:00:40;22.80;97.30
4050;DHT22;2039;50.894;6.888;2022-08-01T02:03:11;22.80;98.00
4050;DHT22;2039;50.894;6.888;2022-08-01T02:05:38;22.70;97.80
4050;DHT22;2039;50.894;6.888;2022-08-01T02:08:05;22.80;97.70
4050;DHT22;2039;50.894;6.888;2022-08-01T02:10:32;22.80;98.10
4050;DHT22;2039;50.894;6.888;2022-08-01T02:13:02;22.70;99.10
4050;DHT22;2039;50.894;6.888;2022-08-01T02:15:30;22.70;99.80
4050;DHT22;2039;50.894;6.888;2022-08-01T02:17:58;22.70;99.90
4050;DHT22;2039;50.894;6.888;2022-08-01T02:20:28;22.60;99.90
4050;DHT22;2039;50.894;6.888;2022-08-01T02:23:08;22.50;99.90
4050;DHT22;2039;50.894;6.888;2022-08-01T02:25:43;22.50;99.90
4050;DHT22;2039;50.894;6.888;2022-08-01T02:28:35;22.50;99.90
4050;DHT22;2039;50.894;6.888;2022-08-01T02:31:04;22.50;99.90
4050;DHT22;2039;50.894;6.888;2022-08-01T02:33:38;22.40;99.90
4050;DHT22;2039;50.894;6.888;2022-08-01T02:36:05;22.30;99.90
4050;DHT22;2039;50.894;6.888;2022-08-01T02:38:35;22.20;99.90
4050;DHT22;2039;50.894;6.888;2022-08-01T02:41:08;22.20;99.90
4050;DHT22;2039;50.894;6.888;2022-08-01T02:43:37;22.30;99.90
4050;DHT22;2039;50.894;6.888;2022-08-01T02:46:06;22.30;99.90
4050;DHT22;2039;50.894;6.888;2022-08-01T02:48:37;22.30;99.90
4050;DHT22;2039;50.894;6.888;2022-08-01T02:51:04;22.40;99.90
4050;DHT22;2039;50.894;6.888;2022-08-01T02:53:34;22.40;99.90
4050;DHT22;2039;50.894;6.888;2022-08-01T02:56:04;22.40;99.90
4050;DHT22;2039;50.894;6.888;2022-08-01T02:58:32;22.50;99.90
4050;DHT22;2039;50.894;6.888;2022-08-01T03:00:59;22.50;99.90
4050;DHT22;2039;50.894;6.888;2022-08-01T03:03:25;22.50;99.90
4050;DHT22;2039;50.894;6.888;2022-08-01T03:05:52;22.50;99.90
4050;DHT22;2039;50.894;6.888;2022-08-01T03:08:19;22.40;99.90
4050;DHT22;2039;50.894;6.888;2022-08-01T03:10:46;22.50;99.90
4050;DHT22;2039;50.894;6.888;2022-08-01T03:13:14;22.30;99.90
4050;DHT22;2039;50.894;6.888;2022-08-01T03:15:43;22.30;99.90
4050;DHT22;2039;50.894;6.888;2022-08-01T03:18:10;22.40;99.90
4050;DHT22;2039;50.894;6.888;2022-08-01T03:20:37;22.40;99.90
4050;DHT22;2039;50.894;6.888;2022-08-01T03:23:06;22.30;99.90
4050;DHT22;2039;50.894;6.888;2022-08-01T03:25:34;22.30;99.90
4050;DHT22;2039;50.894;6.888;2022-08-01T03:28:02;22.20;99.90
4050;DHT22;2039;50.894;6.888;2022-08-01T03:30:30;22.20;99.90
4050;DHT22;2039;50.894;6.888;2022-08-01T03:32:56;22.20;99.90
4050;DHT22;2039;50.894;6.888;2022-08-01T03:35:27;22.20;99.90
4050;DHT22;2039;50.894;6.888;2022-08-01T03:37:55;22.30;99.90
4050;DHT22;2039;50.894;6.888;2022-08-01T03:40:25;22.30;99.90
4050;DHT22;2039;50.894;6.888;2022-08-01T03:43:09;22.40;99.90
4050;DHT22;2039;50.894;6.888;2022-08-01T03:45:40;22.30;99.90
4050;DHT22;2039;50.894;6.888;2022-08-01T03:48:12;22.10;99.90
4050;DHT22;2039;50.894;6.888;2022-08-01T03:50:42;22.20;99.90
4050;DHT22;2039;50.894;6.888;2022-08-01T03:53:10;22.30;99.90
4050;DHT22;2039;50.894;6.888;2022-08-01T03:55:38;22.30;99.90
4050;DHT22;2039;50.894;6.888;2022-08-01T03:58:05;22.30;99.90
4050;DHT22;2039;50.894;6.888;2022-08-01T04:00:31;22.40;99.90
4050;DHT22;2039;50.894;6.888;2022-08-01T04:02:58;22.30;99.90
4050;DHT22;2039;50.894;6.888;2022-08-01T04:05:24;22.40;99.90
4050;DHT22;2039;50.894;6.888;2022-08-01T04:07:50;22.40;99.90
4050;DHT22;2039;50.894;6.888;2022-08-01T04:10:23;22.30;99.90
4050;DHT22;2039;50.894;6.888;2022-08-01T04:12:49;22.30;99.90
4050;DHT22;2039;50.894;6.888;2022-08-01T04:15:15;22.30;99.90
4050;DHT22;2039;50.894;6.888;2022-08-01T04:17:41;22.30;99.90
4050;DHT22;2039;50.894;6.888;2022-08-01T04:20:07;22.30;99.90
4050;DHT22;2039;50.894;6.888;2022-08-01T04:22:33;22.40;99.90
4050;DHT22;2039;50.894;6.888;2022-08-01T04:25:00;22.50;99.90
4050;DHT22;2039;50.894;6.888;2022-08-01T04:27:31;22.40;99.90
4050;DHT22;2039;50.894;6.888;2022-08-01T04:29:59;22.40;99.90
4050;DHT22;2039;50.894;6.888;2022-08-01T04:32:28;22.40;99.90
4050;DHT22;2039;50.894;6.888;2022-08-01T04:34:57;22.40;99.90
4050;DHT22;2039;50.894;6.888;2022-08-01T04:37:25;22.30;99.90
4050;DHT22;2039;50.894;6.888;2022-08-01T04:39:52;22.30;99.90
4050;DHT22;2039;50.894;6.888;2022-08-01T04:42:19;22.30;99.90
4050;DHT22;2039;50.894;6.888;2022-08-01T04:44:45;22.30;99.90
4050;DHT22;2039;50.894;6.888;2022-08-01T04:47:11;22.30;99.90
4050;DHT22;2039;50.894;6.888;2022-08-01T04:49:39;22.30;99.90
4050;DHT22;2039;50.894;6.888;2022-08-01T04:52:05;22.30;99.90
4050;DHT22;2039;50.894;6.888;2022-08-01T04:54:33;22.30;99.90
4050;DHT22;2039;50.894;6.888;2022-08-01T04:56:59;22.30;99.90
4050;DHT22;2039;50.894;6.888;2022-08-01T04:59:29;22.30;99.90
4050;DHT22;2039;50.894;6.888;2022-08-01T05:02:15;22.30;99.90
4050;DHT22;2039;50.894;6.888;2022-08-01T05:04:42;22.30;99.90
4050;DHT22;2039;50.894;6.888;2022-08-01T05:07:09;22.40;99.90
4050;DHT22;2039;50.894;6.888;2022-08-01T05:09:35;22.40;99.90
4050;DHT22;2039;50.894;6.888;2022-08-01T05:12:05;22.30;99.90
4050;DHT22;2039;50.894;6.888;2022-08-01T05:14:31;22.30;99.90
4050;DHT22;2039;50.894;6.888;2022-08-01T05:17:01;22.30;99.90
4050;DHT22;2039;50.894;6.888;2022-08-01T05:19:39;22.30;99.90
4050;DHT22;2039;50.894;6.888;2022-08-01T05:22:07;22.20;99.90
4050;DHT22;2039;50.894;6.888;2022-08-01T05:24:35;22.20;99.90
4050;DHT22;2039;50.894;6.888;2022-08-01T05:27:01;22.30;99.90
4050;DHT22;2039;50.894;6.888;2022-08-01T05:29:27;22.20;99.90
4050;DHT22;2039;50.894;6.888;2022-08-01T05:31:53;22.20;99.90
4050;DHT22;2039;50.894;6.888;2022-08-01T05:34:20;22.10;99.90
4050;DHT22;2039;50.894;6.888;2022-08-01T05:36:46;22.20;99.90
4050;DHT22;2039;50.894;6.888;2022-08-01T05:39:12;22.30;99.90
4050;DHT22;2039;50.894;6.888;2022-08-01T05:41:39;22.40;99.90
4050;DHT22;2039;50.894;6.888;2022-08-01T05:44:04;22.40;99.90
4050;DHT22;2039;50.894;6.888;2022-08-01T05:46:30;22.40;99.90
4050;DHT22;2039;50.894;6.888;2022-08-01T05:48:57;22.40;99.90
4050;DHT22;2039;50.894;6.888;2022-08-01T05:51:24;22.40;99.90
4050;DHT22;2039;50.894;6.888;2022-08-01T05:53:49;22.30;99.90
4050;DHT22;2039;50.894;6.888;2022-08-01T05:56:15;22.30;99.90
4050;DHT22;2039;50.894;6.888;2022-08-01T05:58:50;22.30;99.90
4050;DHT22;2039;50.894;6.888;2022-08-01T06:01:17;22.20;99.90
4050;DHT22;2039;50.894;6.888;2022-08-01T06:03:43;22.20;99.90
4050;DHT22;2039;50.894;6.888;2022-08-01T06:06:16;22.20;99.90
4050;DHT22;2039;50.894;6.888;2022-08-01T06:08:42;22.30;99.90
4050;DHT22;2039;50.894;6.888;2022-08-01T06:11:08;22.40;99.90
4050;DHT22;2039;50.894;6.888;2022-08-01T06:13:34;22.60;99.90
4050;DHT22;2039;50.894;6.888;2022-08-01T06:15:59;22.60;99.90
4050;DHT22;2039;50.894;6.888;2022-08-01T06:18:25;22.60;99.90
4050;DHT22;2039;50.894;6.888;2022-08-01T06:20:51;22.60;99.90
4050;DHT22;2039;50.894;6.888;2022-08-01T06:23:16;22.70;99.90
4050;DHT22;2039;50.894;6.888;2022-08-01T06:25:43;22.70;99.90
4050;DHT22;2039;50.894;6.888;2022-08-01T06:28:09;22.70;99.90
4050;DHT22;2039;50.894;6.888;2022-08-01T06:30:34;22.80;99.90
4050;DHT22;2039;50.894;6.888;2022-08-01T06:33:00;22.90;99.90
4050;DHT22;2039;50.894;6.888;2022-08-01T06:35:27;22.90;99.90
4050;DHT22;2039;50.894;6.888;2022-08-01T06:37:55;22.90;99.90
4050;DHT22;2039;50.894;6.888;2022-08-01T06:40:21;23.10;99.90
4050;DHT22;2039;50.894;6.888;2022-08-01T06:42:47;23.20;99.90
4050;DHT22;2039;50.894;6.888;2022-08-01T06:45:14;23.10;99.90
4050;DHT22;2039;50.894;6.888;2022-08-01T06:47:43;23.10;99.90
4050;DHT22;2039;50.894;6.888;2022-08-01T06:50:11;23.20;99.90
4050;DHT22;2039;50.894;6.888;2022-08-01T06:52:37;23.30;99.90
4050;DHT22;2039;50.894;6.888;2022-08-01T06:55:03;23.40;99.90
4050;DHT22;2039;50.894;6.888;2022-08-01T06:57:29;23.40;99.90
4050;DHT22;2039;50.894;6.888;2022-08-01T06:59:55;23.40;99.90
4050;DHT22;2039;50.894;6.888;2022-08-01T07:02:22;23.60;99.90
4050;DHT22;2039;50.894;6.888;2022-08-01T07:04:48;23.70;98.90
4050;DHT22;2039;50.894;6.888;2022-08-01T07:07:13;23.80;98.60
4050;DHT22;2039;50.894;6.888;2022-08-01T07:09:39;23.80;95.70
4050;DHT22;2039;50.894;6.888;2022-08-01T07:12:07;23.80;85.70
4050;DHT22;2039;50.894;6.888;2022-08-01T07:14:32;23.60;87.50
4050;DHT22;2039;50.894;6.888;2022-08-01T07:16:58;23.50;90.30
4050;DHT22;2039;50.894;6.888;2022-08-01T07:19:24;23.40;90.80
4050;DHT22;2039;50.894;6.888;2022-08-01T07:21:49;23.20;92.90
4050;DHT22;2039;50.894;6.888;2022-08-01T07:24:15;23.20;93.60
4050;DHT22;2039;50.894;6.888;2022-08-01T07:26:44;23.20;94.10
4050;DHT22;2039;50.894;6.888;2022-08-01T07:29:10;23.20;94.90
4050;DHT22;2039;50.894;6.888;2022-08-01T07:31:35;23.10;95.40
4050;DHT22;2039;50.894;6.888;2022-08-01T07:34:01;23.10;95.80
4050;DHT22;2039;50.894;6.888;2022-08-01T07:36:27;23.00;98.00
4050;DHT22;2039;50.894;6.888;2022-08-01T07:38:53;23.20;97.80
4050;DHT22;2039;50.894;6.888;2022-08-01T07:41:18;23.40;95.70
4050;DHT22;2039;50.894;6.888;2022-08-01T07:43:44;23.60;93.70
4050;DHT22;2039;50.894;6.888;2022-08-01T07:46:10;23.60;90.50
4050;DHT22;2039;50.894;6.888;2022-08-01T07:48:36;23.60;90.70
4050;DHT22;2039;50.894;6.888;2022-08-01T07:51:01;23.60;91.70
4050;DHT22;2039;50.894;6.888;2022-08-01T07:53:27;23.50;91.60
4050;DHT22;2039;50.894;6.888;2022-08-01T07:55:54;23.60;91.60
4050;DHT22;2039;50.894;6.888;2022-08-01T07:58:22;23.70;90.90
4050;DHT22;2039;50.894;6.888;2022-08-01T08:00:48;23.90;90.90
4050;DHT22;2039;50.894;6.888;2022-08-01T08:03:14;24.00;91.10
4050;DHT22;2039;50.894;6.888;2022-08-01T08:05:39;24.20;82.20
4050;DHT22;2039;50.894;6.888;2022-08-01T08:08:06;24.20;83.60
4050;DHT22;2039;50.894;6.888;2022-08-01T08:10:33;24.20;79.40
4050;DHT22;2039;50.894;6.888;2022-08-01T08:12:59;24.20;83.30
4050;DHT22;2039;50.894;6.888;2022-08-01T08:15:26;24.10;81.30
4050;DHT22;2039;50.894;6.888;2022-08-01T08:17:51;24.10;82.00
4050;DHT22;2039;50.894;6.888;2022-08-01T08:20:17;24.10;79.90
4050;DHT22;2039;50.894;6.888;2022-08-01T08:22:43;24.10;71.80
4050;DHT22;2039;50.894;6.888;2022-08-01T08:25:08;24.20;71.30
4050;DHT22;2039;50.894;6.888;2022-08-01T08:27:35;24.30;74.20
4050;DHT22;2039;50.894;6.888;2022-08-01T08:30:03;24.40;73.60
4050;DHT22;2039;50.894;6.888;2022-08-01T08:32:31;24.50;68.70
4050;DHT22;2039;50.894;6.888;2022-08-01T08:34:56;24.70;67.70
4050;DHT22;2039;50.894;6.888;2022-08-01T08:37:22;24.70;50.60
4050;DHT22;2039;50.894;6.888;2022-08-01T08:39:48;24.70;57.00
4050;DHT22;2039;50.894;6.888;2022-08-01T08:42:13;24.90;53.60
4050;DHT22;2039;50.894;6.888;2022-08-01T08:44:42;24.90;52.20
4050;DHT22;2039;50.894;6.888;2022-08-01T08:47:11;24.80;52.50
4050;DHT22;2039;50.894;6.888;2022-08-01T08:49:37;24.80;55.10
4050;DHT22;2039;50.894;6.888;2022-08-01T08:52:04;24.80;54.90
4050;DHT22;2039;50.894;6.888;2022-08-01T08:54:31;24.70;49.70
4050;DHT22;2039;50.894;6.888;2022-08-01T08:56:59;24.70;48.30
4050;DHT22;2039;50.894;6.888;2022-08-01T08:59:26;24.80;51.20
4050;DHT22;2039;50.894;6.888;2022-08-01T09:01:53;24.90;52.70
4050;DHT22;2039;50.894;6.888;2022-08-01T09:04:21;24.90;54.30
4050;DHT22;2039;50.894;6.888;2022-08-01T09:06:50;25.10;50.90
4050;DHT22;2039;50.894;6.888;2022-08-01T09:09:16;25.20;46.40
4050;DHT22;2039;50.894;6.888;2022-08-01T09:11:42;25.10;35.90
4050;DHT22;2039;50.894;6.888;2022-08-01T09:14:16;25.20;36.10
4050;DHT22;2039;50.894;6.888;2022-08-01T09:17:07;25.30;33.40
4050;DHT22;2039;50.894;6.888;2022-08-01T09:19:40;25.20;34.10
4050;DHT22;2039;50.894;6.888;2022-08-01T09:22:08;25.30;29.10
4050;DHT22;2039;50.894;6.888;2022-08-01T09:24:34;25.20;28.30
4050;DHT22;2039;50.894;6.888;2022-08-01T09:27:01;25.20;32.10
4050;DHT22;2039;50.894;6.888;2022-08-01T09:29:29;25.10;33.00
4050;DHT22;2039;50.894;6.888;2022-08-01T09:31:56;25.00;30.70
4050;DHT22;2039;50.894;6.888;2022-08-01T09:34:28;24.80;37.20
4050;DHT22;2039;50.894;6.888;2022-08-01T09:37:00;24.80;40.30
4050;DHT22;2039;50.894;6.888;2022-08-01T09:41:55;24.70;47.20
4050;DHT22;2039;50.894;6.888;2022-08-01T09:44:40;24.60;46.60
4050;DHT22;2039;50.894;6.888;2022-08-01T09:47:06;24.70;47.60
4050;DHT22;2039;50.894;6.888;2022-08-01T09:49:33;24.80;48.90
4050;DHT22;2039;50.894;6.888;2022-08-01T09:52:19;25.10;42.60
4050;DHT22;2039;50.894;6.888;2022-08-01T09:55:06;25.30;37.80
4050;DHT22;2039;50.894;6.888;2022-08-01T09:57:31;25.60;33.50
4050;DHT22;2039;50.894;6.888;2022-08-01T09:59:59;25.60;29.40
4050;DHT22;2039;50.894;6.888;2022-08-01T10:02:36;25.50;23.30
4050;DHT22;2039;50.894;6.888;2022-08-01T10:05:07;25.50;20.00
4050;DHT22;2039;50.894;6.888;2022-08-01T10:07:33;25.40;24.80
4050;DHT22;2039;50.894;6.888;2022-08-01T10:10:13;25.40;25.70
4050;DHT22;2039;50.894;6.888;2022-08-01T10:12:40;25.50;21.00
4050;DHT22;2039;50.894;6.888;2022-08-01T10:15:07;25.60;18.00
4050;DHT22;2039;50.894;6.888;2022-08-01T10:17:34;25.60;20.40
4050;DHT22;2039;50.894;6.888;2022-08-01T10:20:02;25.80;21.00
4050;DHT22;2039;50.894;6.888;2022-08-01T10:22:30;25.70;18.60
4050;DHT22;2039;50.894;6.888;2022-08-01T10:24:57;25.60;19.90
4050;DHT22;2039;50.894;6.888;2022-08-01T10:27:29;25.50;21.80
4050;DHT22;2039;50.894;6.888;2022-08-01T10:29:58;25.50;22.20
4050;DHT22;2039;50.894;6.888;2022-08-01T10:32:35;25.60;23.90
4050;DHT22;2039;50.894;6.888;2022-08-01T10:35:03;25.60;23.10
4050;DHT22;2039;50.894;6.888;2022-08-01T10:37:33;25.70;20.80
4050;DHT22;2039;50.894;6.888;2022-08-01T10:40:01;26.00;22.80
4050;DHT22;2039;50.894;6.888;2022-08-01T10:42:27;26.30;16.60
4050;DHT22;2039;50.894;6.888;2022-08-01T10:44:54;26.40;14.90
4050;DHT22;2039;50.894;6.888;2022-08-01T10:47:25;26.50;15.10
4050;DHT22;2039;50.894;6.888;2022-08-01T10:50:05;26.20;9.20
4050;DHT22;2039;50.894;6.888;2022-08-01T10:52:32;25.90;10.90
4050;DHT22;2039;50.894;6.888;2022-08-01T10:55:03;25.70;13.70
4050;DHT22;2039;50.894;6.888;2022-08-01T10:57:47;25.60;17.20
4050;DHT22;2039;50.894;6.888;2022-08-01T11:00:18;25.50;19.50
4050;DHT22;2039;50.894;6.888;2022-08-01T11:03:01;25.60;18.80
4050;DHT22;2039;50.894;6.888;2022-08-01T11:05:31;25.70;17.30
4050;DHT22;2039;50.894;6.888;2022-08-01T11:08:01;25.80;18.70
4050;DHT22;2039;50.894;6.888;2022-08-01T11:10:41;26.20;14.80
4050;DHT22;2039;50.894;6.888;2022-08-01T11:13:10;26.50;8.00
4050;DHT22;2039;50.894;6.888;2022-08-01T11:15:40;26.50;4.30
4050;DHT22;2039;50.894;6.888;2022-08-01T11:18:29;26.30;1.00
4050;DHT22;2039;50.894;6.888;2022-08-01T11:21:00;26.10;5.30
4050;DHT22;2039;50.894;6.888;2022-08-01T11:23:29;26.40;4.50
4050;DHT22;2039;50.894;6.888;2022-08-01T11:28:28;26.90;3.80
4050;DHT22;2039;50.894;6.888;2022-08-01T11:41:13;27.40;1.00
4050;DHT22;2039;50.894;6.888;2022-08-01T11:46:58;27.80;1.00
4050;DHT22;2039;50.894;6.888;2022-08-01T11:57:07;26.60;1.00
4050;DHT22;2039;50.894;6.888;2022-08-01T11:59:38;26.50;1.00
4050;DHT22;2039;50.894;6.888;2022-08-01T12:02:04;26.50;1.00
4050;DHT22;2039;50.894;6.888;2022-08-01T12:04:53;26.70;1.00
4050;DHT22;2039;50.894;6.888;2022-08-01T12:07:20;27.00;1.00
4050;DHT22;2039;50.894;6.888;2022-08-01T12:09:46;27.40;1.00
4050;DHT22;2039;50.894;6.888;2022-08-01T12:12:15;27.80;1.00
4050;DHT22;2039;50.894;6.888;2022-08-01T12:14:42;28.10;1.00
4050;DHT22;2039;50.894;6.888;2022-08-01T12:17:08;28.30;1.00
4050;DHT22;2039;50.894;6.888;2022-08-01T12:19:34;28.20;1.00
4050;DHT22;2039;50.894;6.888;2022-08-01T12:22:14;28.20;1.00
4050;DHT22;2039;50.894;6.888;2022-08-01T12:24:41;28.30;1.00
4050;DHT22;2039;50.894;6.888;2022-08-01T12:27:09;28.30;1.00
4050;DHT22;2039;50.894;6.888;2022-08-01T12:29:41;28.00;1.00
4050;DHT22;2039;50.894;6.888;2022-08-01T12:32:23;27.50;1.00
4050;DHT22;2039;50.894;6.888;2022-08-01T12:34:50;27.20;1.00
4050;DHT22;2039;50.894;6.888;2022-08-01T12:37:16;26.80;1.00
4050;DHT22;2039;50.894;6.888;2022-08-01T12:39:43;26.70;1.00
4050;DHT22;2039;50.894;6.888;2022-08-01T12:42:09;26.70;1.00
4050;DHT22;2039;50.894;6.888;2022-08-01T12:44:36;26.60;1.00
4050;DHT22;2039;50.894;6.888;2022-08-01T12:47:04;26.50;1.00
4050;DHT22;2039;50.894;6.888;2022-08-01T12:49:37;26.30;1.00
4050;DHT22;2039;50.894;6.888;2022-08-01T12:52:04;26.40;1.00
4050;DHT22;2039;50.894;6.888;2022-08-01T12:54:30;26.60;1.00
4050;DHT22;2039;50.894;6.888;2022-08-01T12:56:56;26.70;1.00
4050;DHT22;2039;50.894;6.888;2022-08-01T12:59:25;26.80;1.00
4050;DHT22;2039;50.894;6.888;2022-08-01T13:01:55;27.10;1.00
4050;DHT22;2039;50.894;6.888;2022-08-01T13:04:22;27.30;1.00
4050;DHT22;2039;50.894;6.888;2022-08-01T13:06:52;27.40;1.00
4050;DHT22;2039;50.894;6.888;2022-08-01T13:09:21;27.40;1.00
4050;DHT22;2039;50.894;6.888;2022-08-01T13:11:46;27.10;1.00
4050;DHT22;2039;50.894;6.888;2022-08-01T13:14:28;27.20;1.00
4050;DHT22;2039;50.894;6.888;2022-08-01T13:16:54;27.20;1.00
4050;DHT22;2039;50.894;6.888;2022-08-01T13:19:20;27.10;1.00
4050;DHT22;2039;50.894;6.888;2022-08-01T13:21:56;27.10;1.00
4050;DHT22;2039;50.894;6.888;2022-08-01T13:26:56;27.10;1.00
4050;DHT22;2039;50.894;6.888;2022-08-01T13:29:39;27.20;1.00
4050;DHT22;2039;50.894;6.888;2022-08-01T13:32:21;27.30;1.00
4050;DHT22;2039;50.894;6.888;2022-08-01T13:34:47;27.30;1.00
4050;DHT22;2039;50.894;6.888;2022-08-01T13:37:12;27.30;1.00
4050;DHT22;2039;50.894;6.888;2022-08-01T13:39:38;27.20;1.00
4050;DHT22;2039;50.894;6.888;2022-08-01T13:42:08;27.20;1.00
4050;DHT22;2039;50.894;6.888;2022-08-01T13:44:34;27.10;1.00
4050;DHT22;2039;50.894;6.888;2022-08-01T13:47:00;27.10;1.00
4050;DHT22;2039;50.894;6.888;2022-08-01T13:49:26;27.00;1.00
4050;DHT22;2039;50.894;6.888;2022-08-01T13:51:52;26.90;1.00
4050;DHT22;2039;50.894;6.888;2022-08-01T13:54:18;26.70;1.00
4050;DHT22;2039;50.894;6.888;2022-08-01T13:56:44;26.50;1.00
4050;DHT22;2039;50.894;6.888;2022-08-01T13:59:09;26.20;1.00
4050;DHT22;2039;50.894;6.888;2022-08-01T14:01:35;26.20;1.00
4050;DHT22;2039;50.894;6.888;2022-08-01T14:04:02;26.20;1.00
4050;DHT22;2039;50.894;6.888;2022-08-01T14:06:28;26.30;1.00
4050;DHT22;2039;50.894;6.888;2022-08-01T14:08:53;26.50;1.00
4050;DHT22;2039;50.894;6.888;2022-08-01T14:11:19;26.80;1.00
4050;DHT22;2039;50.894;6.888;2022-08-01T14:13:45;26.90;1.00
4050;DHT22;2039;50.894;6.888;2022-08-01T14:16:11;27.10;1.00
4050;DHT22;2039;50.894;6.888;2022-08-01T14:18:36;27.10;1.00
4050;DHT22;2039;50.894;6.888;2022-08-01T14:21:02;27.20;1.00
4050;DHT22;2039;50.894;6.888;2022-08-01T14:23:28;27.40;1.00
4050;DHT22;2039;50.894;6.888;2022-08-01T14:25:54;27.40;1.00
4050;DHT22;2039;50.894;6.888;2022-08-01T14:28:20;27.50;1.00
4050;DHT22;2039;50.894;6.888;2022-08-01T14:30:46;27.60;1.00
4050;DHT22;2039;50.894;6.888;2022-08-01T14:33:12;27.60;1.00
4050;DHT22;2039;50.894;6.888;2022-08-01T14:35:38;27.60;1.00
4050;DHT22;2039;50.894;6.888;2022-08-01T14:38:04;27.60;1.00
4050;DHT22;2039;50.894;6.888;2022-08-01T14:40:30;27.60;1.00
4050;DHT22;2039;50.894;6.888;2022-08-01T14:42:56;27.50;1.00
4050;DHT22;2039;50.894;6.888;2022-08-01T14:45:21;27.60;1.00
4050;DHT22;2039;50.894;6.888;2022-08-01T14:47:47;27.70;1.00
4050;DHT22;2039;50.894;6.888;2022-08-01T14:50:14;27.70;1.00
4050;DHT22;2039;50.894;6.888;2022-08-01T14:52:42;27.80;1.00
4050;DHT22;2039;50.894;6.888;2022-08-01T14:55:09;27.90;1.00
4050;DHT22;2039;50.894;6.888;2022-08-01T14:57:36;27.80;1.00
4050;DHT22;2039;50.894;6.888;2022-08-01T15:00:05;27.70;1.00
4050;DHT22;2039;50.894;6.888;2022-08-01T15:02:31;27.70;1.00
4050;DHT22;2039;50.894;6.888;2022-08-01T15:04:56;27.60;1.00
4050;DHT22;2039;50.894;6.888;2022-08-01T15:07:22;27.70;1.00
4050;DHT22;2039;50.894;6.888;2022-08-01T15:09:48;27.70;1.00
4050;DHT22;2039;50.894;6.888;2022-08-01T15:12:13;27.80;1.00
4050;DHT22;2039;50.894;6.888;2022-08-01T15:14:39;27.90;1.00
4050;DHT22;2039;50.894;6.888;2022-08-01T15:17:15;27.90;1.00
4050;DHT22;2039;50.894;6.888;2022-08-01T15:19:40;27.90;1.00
4050;DHT22;2039;50.894;6.888;2022-08-01T15:22:06;27.80;1.00
4050;DHT22;2039;50.894;6.888;2022-08-01T15:24:35;28.00;1.00
4050;DHT22;2039;50.894;6.888;2022-08-01T15:27:02;27.90;1.00
4050;DHT22;2039;50.894;6.888;2022-08-01T15:29:28;27.80;1.00
4050;DHT22;2039;50.894;6.888;2022-08-01T15:31:53;27.70;1.00
4050;DHT22;2039;50.894;6.888;2022-08-01T15:34:21;27.90;1.00
4050;DHT22;2039;50.894;6.888;2022-08-01T15:36:47;27.80;1.00
4050;DHT22;2039;50.894;6.888;2022-08-01T15:39:12;27.70;1.00
4050;DHT22;2039;50.894;6.888;2022-08-01T15:41:38;27.30;1.00
4050;DHT22;2039;50.894;6.888;2022-08-01T15:44:04;27.10;1.00
4050;DHT22;2039;50.894;6.888;2022-08-01T15:46:29;26.90;1.00
4050;DHT22;2039;50.894;6.888;2022-08-01T15:48:55;26.90;1.00
4050;DHT22;2039;50.894;6.888;2022-08-01T15:51:21;27.00;1.00
4050;DHT22;2039;50.894;6.888;2022-08-01T15:53:47;27.00;1.00
4050;DHT22;2039;50.894;6.888;2022-08-01T15:56:13;26.90;1.00
4050;DHT22;2039;50.894;6.888;2022-08-01T15:58:39;26.60;1.00
4050;DHT22;2039;50.894;6.888;2022-08-01T16:01:05;26.40;1.00
4050;DHT22;2039;50.894;6.888;2022-08-01T16:03:31;26.30;1.00
4050;DHT22;2039;50.894;6.888;2022-08-01T16:05:56;26.30;1.00
4050;DHT22;2039;50.894;6.888;2022-08-01T16:08:22;26.30;1.00
4050;DHT22;2039;50.894;6.888;2022-08-01T16:10:48;26.40;1.00
4050;DHT22;2039;50.894;6.888;2022-08-01T16:13:14;26.50;1.00
4050;DHT22;2039;50.894;6.888;2022-08-01T16:15:40;26.80;1.00
4050;DHT22;2039;50.894;6.888;2022-08-01T16:18:08;27.00;1.00
4050;DHT22;2039;50.894;6.888;2022-08-01T16:20:34;27.40;1.00
4050;DHT22;2039;50.894;6.888;2022-08-01T16:23:00;27.70;1.00
4050;DHT22;2039;50.894;6.888;2022-08-01T16:25:25;28.00;1.00
4050;DHT22;2039;50.894;6.888;2022-08-01T16:27:51;28.10;1.00
4050;DHT22;2039;50.894;6.888;2022-08-01T16:30:17;27.80;1.00
4050;DHT22;2039;50.894;6.888;2022-08-01T16:32:43;28.10;1.00
4050;DHT22;2039;50.894;6.888;2022-08-01T16:35:08;28.70;1.00
4050;DHT22;2039;50.894;6.888;2022-08-01T16:37:34;29.10;1.00
4050;DHT22;2039;50.894;6.888;2022-08-01T16:40:00;29.50;1.00
4050;DHT22;2039;50.894;6.888;2022-08-01T16:42:25;29.80;1.00
4050;DHT22;2039;50.894;6.888;2022-08-01T16:44:51;29.80;1.00
4050;DHT22;2039;50.894;6.888;2022-08-01T16:47:17;29.20;1.00
4050;DHT22;2039;50.894;6.888;2022-08-01T16:49:43;28.60;1.00
4050;DHT22;2039;50.894;6.888;2022-08-01T16:52:08;27.90;1.00
4050;DHT22;2039;50.894;6.888;2022-08-01T16:54:34;27.50;1.00